Portada
METAR-TAF:

METAR-TAF

Aeropuertos :

Stewart, Columbia Británica, Canadá

latitud: 55-56N, longitud: 129-59W, altitud: 7 m

Observación

El informe se hizo hace 1 hora y 9 minutos, a las 17:00 UTC
Viento 6 kt del sur-suroeste
Temperatura 2°C
Humedad 87%
Presión 1010 hPa
Visibilidad: 24.1 km
Cielo nuboso a una altura de 6000 ft
Cielo cubierto a una altura de 7000 ft

METAR: CZST 241700Z 20006KT 15SM BKN060 OVC070 02/M00 A2983 RMK SC6AC2 SLP103

Hora: 10:09 (18:09 UTC)


TAF: falta

Observaciones y pronósticos meteorológicos de más de 4000 aeropuertos (mensajes METAR y TAF).

Los puntos amarillos y rojos representan las estaciones disponibles.

Ponga el ratón en el punto deseado para ver el nombre de la estación.

Haga clic para ver las observaciones y los pronósticos meteorológicos.

Para cambiar el mapa : haga clic en los botones verdes con una cruz de color negro para hacer un zoom, en el botón verde con un guión para alejar o en las flechas verdes para mapas adyacentes.


METAR-TAF: